sensor_id;sensor_type;location;lat;lon;timestamp;temperature;humidity
20319;DHT22;10317;47.254;11.314;2022-08-30T00:00:50;16.50;99.90
20319;DHT22;10317;47.254;11.314;2022-08-30T00:03:37;16.50;99.90
20319;DHT22;10317;47.254;11.314;2022-08-30T00:06:04;16.40;99.90
20319;DHT22;10317;47.254;11.314;2022-08-30T00:08:31;16.40;99.90
20319;DHT22;10317;47.254;11.314;2022-08-30T00:10:58;16.40;99.90
20319;DHT22;10317;47.254;11.314;2022-08-30T00:13:24;16.30;99.90
20319;DHT22;10317;47.254;11.314;2022-08-30T00:15:50;16.30;99.90
20319;DHT22;10317;47.254;11.314;2022-08-30T00:18:17;16.30;99.90
20319;DHT22;10317;47.254;11.314;2022-08-30T00:20:45;16.30;99.90
20319;DHT22;10317;47.254;11.314;2022-08-30T00:23:11;16.30;99.90
20319;DHT22;10317;47.254;11.314;2022-08-30T00:25:38;16.30;99.90
20319;DHT22;10317;47.254;11.314;2022-08-30T00:28:04;16.20;99.90
20319;DHT22;10317;47.254;11.314;2022-08-30T00:30:30;16.30;99.90
20319;DHT22;10317;47.254;11.314;2022-08-30T00:32:56;16.20;99.90
20319;DHT22;10317;47.254;11.314;2022-08-30T00:35:22;16.20;99.90
20319;DHT22;10317;47.254;11.314;2022-08-30T00:37:48;16.20;99.90
20319;DHT22;10317;47.254;11.314;2022-08-30T00:40:16;16.10;99.90
20319;DHT22;10317;47.254;11.314;2022-08-30T00:42:44;16.10;99.90
20319;DHT22;10317;47.254;11.314;2022-08-30T00:45:15;16.10;99.90
20319;DHT22;10317;47.254;11.314;2022-08-30T00:47:42;16.10;99.90
20319;DHT22;10317;47.254;11.314;2022-08-30T00:50:09;16.00;99.90
20319;DHT22;10317;47.254;11.314;2022-08-30T00:52:37;16.00;99.90
20319;DHT22;10317;47.254;11.314;2022-08-30T00:55:06;16.00;99.90
20319;DHT22;10317;47.254;11.314;2022-08-30T00:57:33;16.00;99.90
20319;DHT22;10317;47.254;11.314;2022-08-30T01:00:01;16.00;99.90
20319;DHT22;10317;47.254;11.314;2022-08-30T01:02:29;15.90;99.90
20319;DHT22;10317;47.254;11.314;2022-08-30T01:04:56;15.90;99.90
20319;DHT22;10317;47.254;11.314;2022-08-30T01:07:22;15.90;99.90
20319;DHT22;10317;47.254;11.314;2022-08-30T01:09:49;15.90;99.90
20319;DHT22;10317;47.254;11.314;2022-08-30T01:12:15;15.90;99.90
20319;DHT22;10317;47.254;11.314;2022-08-30T01:14:41;15.80;99.90
20319;DHT22;10317;47.254;11.314;2022-08-30T01:17:08;15.80;99.90
20319;DHT22;10317;47.254;11.314;2022-08-30T01:19:52;15.80;99.90
20319;DHT22;10317;47.254;11.314;2022-08-30T01:25:22;15.80;99.90
20319;DHT22;10317;47.254;11.314;2022-08-30T01:28:03;15.70;99.90
20319;DHT22;10317;47.254;11.314;2022-08-30T01:30:30;15.70;99.90
20319;DHT22;10317;47.254;11.314;2022-08-30T01:32:59;15.70;99.90
20319;DHT22;10317;47.254;11.314;2022-08-30T01:35:27;15.60;99.90
20319;DHT22;10317;47.254;11.314;2022-08-30T01:37:54;15.60;99.90
20319;DHT22;10317;47.254;11.314;2022-08-30T01:40:20;15.60;99.90
20319;DHT22;10317;47.254;11.314;2022-08-30T01:42:46;15.60;99.90
20319;DHT22;10317;47.254;11.314;2022-08-30T01:45:13;15.60;99.90
20319;DHT22;10317;47.254;11.314;2022-08-30T01:47:39;15.60;99.90
20319;DHT22;10317;47.254;11.314;2022-08-30T01:50:06;15.50;99.90
20319;DHT22;10317;47.254;11.314;2022-08-30T01:52:32;15.50;99.90
20319;DHT22;10317;47.254;11.314;2022-08-30T01:54:59;15.50;99.90
20319;DHT22;10317;47.254;11.314;2022-08-30T01:57:25;15.50;99.90
20319;DHT22;10317;47.254;11.314;2022-08-30T01:59:54;15.40;99.90
20319;DHT22;10317;47.254;11.314;2022-08-30T02:02:22;15.40;99.90
20319;DHT22;10317;47.254;11.314;2022-08-30T02:04:51;15.40;99.90
20319;DHT22;10317;47.254;11.314;2022-08-30T02:07:18;15.40;99.90
20319;DHT22;10317;47.254;11.314;2022-08-30T02:09:44;15.40;99.90
20319;DHT22;10317;47.254;11.314;2022-08-30T02:12:09;15.40;99.90
20319;DHT22;10317;47.254;11.314;2022-08-30T02:14:36;15.30;99.90
20319;DHT22;10317;47.254;11.314;2022-08-30T02:17:05;15.30;99.90
20319;DHT22;10317;47.254;11.314;2022-08-30T02:19:31;15.30;99.90
20319;DHT22;10317;47.254;11.314;2022-08-30T02:21:57;15.30;99.90
20319;DHT22;10317;47.254;11.314;2022-08-30T02:24:23;15.30;99.90
20319;DHT22;10317;47.254;11.314;2022-08-30T02:26:49;15.20;99.90
20319;DHT22;10317;47.254;11.314;2022-08-30T02:29:15;15.20;99.90
20319;DHT22;10317;47.254;11.314;2022-08-30T02:31:40;15.10;99.90
20319;DHT22;10317;47.254;11.314;2022-08-30T02:34:06;15.10;99.90
20319;DHT22;10317;47.254;11.314;2022-08-30T02:36:32;15.10;99.90
20319;DHT22;10317;47.254;11.314;2022-08-30T02:38:58;15.10;99.90
20319;DHT22;10317;47.254;11.314;2022-08-30T02:41:24;15.10;99.90
20319;DHT22;10317;47.254;11.314;2022-08-30T02:43:49;15.10;99.90
20319;DHT22;10317;47.254;11.314;2022-08-30T02:46:16;15.10;99.90
20319;DHT22;10317;47.254;11.314;2022-08-30T02:48:42;15.10;99.90
20319;DHT22;10317;47.254;11.314;2022-08-30T02:51:10;15.00;99.90
20319;DHT22;10317;47.254;11.314;2022-08-30T02:53:37;15.00;99.90
20319;DHT22;10317;47.254;11.314;2022-08-30T02:56:03;14.90;99.90
20319;DHT22;10317;47.254;11.314;2022-08-30T02:58:29;15.00;99.90
20319;DHT22;10317;47.254;11.314;2022-08-30T03:00:55;14.90;99.90
20319;DHT22;10317;47.254;11.314;2022-08-30T03:03:21;14.90;99.90
20319;DHT22;10317;47.254;11.314;2022-08-30T03:05:47;14.90;99.90
20319;DHT22;10317;47.254;11.314;2022-08-30T03:08:13;14.90;99.90
20319;DHT22;10317;47.254;11.314;2022-08-30T03:10:39;14.80;99.90
20319;DHT22;10317;47.254;11.314;2022-08-30T03:13:05;14.70;99.90
20319;DHT22;10317;47.254;11.314;2022-08-30T03:15:33;14.70;99.90
20319;DHT22;10317;47.254;11.314;2022-08-30T03:18:00;14.70;99.90
20319;DHT22;10317;47.254;11.314;2022-08-30T03:20:27;14.70;99.90
20319;DHT22;10317;47.254;11.314;2022-08-30T03:22:52;14.70;99.90
20319;DHT22;10317;47.254;11.314;2022-08-30T03:25:19;14.70;99.90
20319;DHT22;10317;47.254;11.314;2022-08-30T03:27:45;14.70;99.90
20319;DHT22;10317;47.254;11.314;2022-08-30T03:30:11;14.70;99.90
20319;DHT22;10317;47.254;11.314;2022-08-30T03:32:38;14.70;99.90
20319;DHT22;10317;47.254;11.314;2022-08-30T03:35:06;14.70;99.90
20319;DHT22;10317;47.254;11.314;2022-08-30T03:37:32;14.80;99.90
20319;DHT22;10317;47.254;11.314;2022-08-30T03:39:58;14.70;99.90
20319;DHT22;10317;47.254;11.314;2022-08-30T03:42:24;14.70;99.90
20319;DHT22;10317;47.254;11.314;2022-08-30T03:44:50;14.70;99.90
20319;DHT22;10317;47.254;11.314;2022-08-30T03:47:16;14.70;99.90
20319;DHT22;10317;47.254;11.314;2022-08-30T03:49:42;14.60;99.90
20319;DHT22;10317;47.254;11.314;2022-08-30T03:52:07;14.60;99.90
20319;DHT22;10317;47.254;11.314;2022-08-30T03:54:33;14.60;99.90
20319;DHT22;10317;47.254;11.314;2022-08-30T03:56:59;14.60;99.90
20319;DHT22;10317;47.254;11.314;2022-08-30T03:59:25;14.60;99.90
20319;DHT22;10317;47.254;11.314;2022-08-30T04:01:50;14.50;99.90
20319;DHT22;10317;47.254;11.314;2022-08-30T04:04:16;14.60;99.90
20319;DHT22;10317;47.254;11.314;2022-08-30T04:06:42;14.50;99.90
20319;DHT22;10317;47.254;11.314;2022-08-30T04:09:08;14.50;99.90
20319;DHT22;10317;47.254;11.314;2022-08-30T04:11:34;14.50;99.90
20319;DHT22;10317;47.254;11.314;2022-08-30T04:14:00;14.50;99.90
20319;DHT22;10317;47.254;11.314;2022-08-30T04:16:26;14.50;99.90
20319;DHT22;10317;47.254;11.314;2022-08-30T04:18:52;14.50;99.90
20319;DHT22;10317;47.254;11.314;2022-08-30T04:21:18;14.40;99.90
20319;DHT22;10317;47.254;11.314;2022-08-30T04:23:44;14.40;99.90
20319;DHT22;10317;47.254;11.314;2022-08-30T04:26:11;14.40;99.90
20319;DHT22;10317;47.254;11.314;2022-08-30T04:28:37;14.40;99.90
20319;DHT22;10317;47.254;11.314;2022-08-30T04:31:10;14.40;99.90
20319;DHT22;10317;47.254;11.314;2022-08-30T04:33:37;14.30;99.90
20319;DHT22;10317;47.254;11.314;2022-08-30T04:36:04;14.40;99.90
20319;DHT22;10317;47.254;11.314;2022-08-30T04:38:31;14.40;99.90
20319;DHT22;10317;47.254;11.314;2022-08-30T04:40:57;14.40;99.90
20319;DHT22;10317;47.254;11.314;2022-08-30T04:43:23;14.40;99.90
20319;DHT22;10317;47.254;11.314;2022-08-30T04:45:52;14.40;99.90
20319;DHT22;10317;47.254;11.314;2022-08-30T04:48:18;14.40;99.90
20319;DHT22;10317;47.254;11.314;2022-08-30T04:50:44;14.40;99.90
20319;DHT22;10317;47.254;11.314;2022-08-30T04:53:11;14.40;99.90
20319;DHT22;10317;47.254;11.314;2022-08-30T04:55:38;14.40;99.90
20319;DHT22;10317;47.254;11.314;2022-08-30T04:58:04;14.40;99.90
20319;DHT22;10317;47.254;11.314;2022-08-30T05:00:30;14.40;99.90
20319;DHT22;10317;47.254;11.314;2022-08-30T05:02:56;14.40;99.90
20319;DHT22;10317;47.254;11.314;2022-08-30T05:05:22;14.40;99.90
20319;DHT22;10317;47.254;11.314;2022-08-30T05:08:05;14.50;99.90
20319;DHT22;10317;47.254;11.314;2022-08-30T05:10:32;14.50;99.90
20319;DHT22;10317;47.254;11.314;2022-08-30T05:12:58;14.60;99.90
20319;DHT22;10317;47.254;11.314;2022-08-30T05:15:24;14.60;99.90
20319;DHT22;10317;47.254;11.314;2022-08-30T05:17:49;14.70;99.90
20319;DHT22;10317;47.254;11.314;2022-08-30T05:20:15;14.70;99.90
20319;DHT22;10317;47.254;11.314;2022-08-30T05:22:42;14.70;99.90
20319;DHT22;10317;47.254;11.314;2022-08-30T05:25:19;14.70;99.90
20319;DHT22;10317;47.254;11.314;2022-08-30T05:27:45;14.70;99.90
20319;DHT22;10317;47.254;11.314;2022-08-30T05:30:12;14.80;99.90
20319;DHT22;10317;47.254;11.314;2022-08-30T05:32:39;14.80;99.90
20319;DHT22;10317;47.254;11.314;2022-08-30T05:35:05;14.80;99.90
20319;DHT22;10317;47.254;11.314;2022-08-30T05:37:31;14.90;99.90
20319;DHT22;10317;47.254;11.314;2022-08-30T05:39:57;14.90;99.90
20319;DHT22;10317;47.254;11.314;2022-08-30T05:42:23;14.90;99.90
20319;DHT22;10317;47.254;11.314;2022-08-30T05:44:50;15.00;99.90
20319;DHT22;10317;47.254;11.314;2022-08-30T05:47:17;15.00;99.90
20319;DHT22;10317;47.254;11.314;2022-08-30T05:49:43;15.00;99.90
20319;DHT22;10317;47.254;11.314;2022-08-30T05:52:08;15.00;99.90
20319;DHT22;10317;47.254;11.314;2022-08-30T05:54:34;15.10;99.90
20319;DHT22;10317;47.254;11.314;2022-08-30T05:57:00;15.10;99.90
20319;DHT22;10317;47.254;11.314;2022-08-30T05:59:26;15.20;99.90
20319;DHT22;10317;47.254;11.314;2022-08-30T06:01:56;15.20;99.90
20319;DHT22;10317;47.254;11.314;2022-08-30T06:04:22;15.30;99.90
20319;DHT22;10317;47.254;11.314;2022-08-30T06:06:47;15.40;99.90
20319;DHT22;10317;47.254;11.314;2022-08-30T06:09:14;15.40;99.90
20319;DHT22;10317;47.254;11.314;2022-08-30T06:11:40;15.50;99.90
20319;DHT22;10317;47.254;11.314;2022-08-30T06:14:06;15.60;99.90
20319;DHT22;10317;47.254;11.314;2022-08-30T06:16:33;15.70;99.90
20319;DHT22;10317;47.254;11.314;2022-08-30T06:19:00;15.70;99.90
20319;DHT22;10317;47.254;11.314;2022-08-30T06:21:32;15.80;99.90
20319;DHT22;10317;47.254;11.314;2022-08-30T06:23:59;15.90;99.90
20319;DHT22;10317;47.254;11.314;2022-08-30T06:26:27;15.90;99.90
20319;DHT22;10317;47.254;11.314;2022-08-30T06:28:53;16.00;99.90
20319;DHT22;10317;47.254;11.314;2022-08-30T06:31:21;16.10;99.90
20319;DHT22;10317;47.254;11.314;2022-08-30T06:33:47;16.10;99.90
20319;DHT22;10317;47.254;11.314;2022-08-30T06:36:32;16.10;99.90
20319;DHT22;10317;47.254;11.314;2022-08-30T06:38:58;16.20;99.90
20319;DHT22;10317;47.254;11.314;2022-08-30T06:41:30;16.20;99.90
20319;DHT22;10317;47.254;11.314;2022-08-30T06:43:58;16.30;99.90
20319;DHT22;10317;47.254;11.314;2022-08-30T06:46:27;16.40;99.90
20319;DHT22;10317;47.254;11.314;2022-08-30T06:48:55;16.50;99.90
20319;DHT22;10317;47.254;11.314;2022-08-30T06:51:33;16.70;99.90
20319;DHT22;10317;47.254;11.314;2022-08-30T06:54:00;16.90;99.90
20319;DHT22;10317;47.254;11.314;2022-08-30T06:56:26;17.10;99.90
20319;DHT22;10317;47.254;11.314;2022-08-30T06:58:52;17.40;99.90
20319;DHT22;10317;47.254;11.314;2022-08-30T07:01:21;17.70;99.90
20319;DHT22;10317;47.254;11.314;2022-08-30T07:03:48;18.00;99.90
20319;DHT22;10317;47.254;11.314;2022-08-30T07:06:14;18.40;99.90
20319;DHT22;10317;47.254;11.314;2022-08-30T07:08:40;18.70;99.90
20319;DHT22;10317;47.254;11.314;2022-08-30T07:11:07;19.00;99.90
20319;DHT22;10317;47.254;11.314;2022-08-30T07:13:34;19.30;99.90
20319;DHT22;10317;47.254;11.314;2022-08-30T07:16:00;19.50;99.90
20319;DHT22;10317;47.254;11.314;2022-08-30T07:18:25;19.70;99.90
20319;DHT22;10317;47.254;11.314;2022-08-30T07:21:13;19.90;99.90
20319;DHT22;10317;47.254;11.314;2022-08-30T07:23:43;20.10;98.80
20319;DHT22;10317;47.254;11.314;2022-08-30T07:26:12;20.70;98.80
20319;DHT22;10317;47.254;11.314;2022-08-30T07:28:40;21.60;98.20
20319;DHT22;10317;47.254;11.314;2022-08-30T07:31:08;22.40;96.80
20319;DHT22;10317;47.254;11.314;2022-08-30T07:33:34;23.30;94.80
20319;DHT22;10317;47.254;11.314;2022-08-30T07:36:00;23.80;92.50
20319;DHT22;10317;47.254;11.314;2022-08-30T07:38:26;24.30;91.50
20319;DHT22;10317;47.254;11.314;2022-08-30T07:40:52;24.70;90.00
20319;DHT22;10317;47.254;11.314;2022-08-30T07:43:19;25.20;87.70
20319;DHT22;10317;47.254;11.314;2022-08-30T07:45:45;25.60;88.10
20319;DHT22;10317;47.254;11.314;2022-08-30T07:48:11;26.20;86.40
20319;DHT22;10317;47.254;11.314;2022-08-30T07:50:41;26.10;84.40
20319;DHT22;10317;47.254;11.314;2022-08-30T07:53:07;26.30;84.40
20319;DHT22;10317;47.254;11.314;2022-08-30T07:55:33;26.50;80.50
20319;DHT22;10317;47.254;11.314;2022-08-30T07:57:58;26.70;78.10
20319;DHT22;10317;47.254;11.314;2022-08-30T08:00:24;26.80;79.80
20319;DHT22;10317;47.254;11.314;2022-08-30T08:02:50;26.90;77.90
20319;DHT22;10317;47.254;11.314;2022-08-30T08:05:16;27.00;74.60
20319;DHT22;10317;47.254;11.314;2022-08-30T08:07:42;27.00;74.00
20319;DHT22;10317;47.254;11.314;2022-08-30T08:10:08;27.20;73.40
20319;DHT22;10317;47.254;11.314;2022-08-30T08:12:34;27.20;73.00
20319;DHT22;10317;47.254;11.314;2022-08-30T08:15:01;27.20;72.30
20319;DHT22;10317;47.254;11.314;2022-08-30T08:17:26;27.10;72.10
20319;DHT22;10317;47.254;11.314;2022-08-30T08:19:52;27.20;71.40
20319;DHT22;10317;47.254;11.314;2022-08-30T08:22:18;27.40;69.70
20319;DHT22;10317;47.254;11.314;2022-08-30T08:24:44;27.40;72.40
20319;DHT22;10317;47.254;11.314;2022-08-30T08:27:11;27.40;68.20
20319;DHT22;10317;47.254;11.314;2022-08-30T08:29:36;27.30;69.10
20319;DHT22;10317;47.254;11.314;2022-08-30T08:32:02;27.40;69.30
20319;DHT22;10317;47.254;11.314;2022-08-30T08:34:28;27.30;68.00
20319;DHT22;10317;47.254;11.314;2022-08-30T08:36:54;27.40;67.80
20319;DHT22;10317;47.254;11.314;2022-08-30T08:39:20;27.50;67.80
20319;DHT22;10317;47.254;11.314;2022-08-30T08:42:15;27.40;64.40
20319;DHT22;10317;47.254;11.314;2022-08-30T08:47:40;27.30;66.80
20319;DHT22;10317;47.254;11.314;2022-08-30T08:50:12;27.50;65.80
20319;DHT22;10317;47.254;11.314;2022-08-30T08:52:47;27.60;64.70
20319;DHT22;10317;47.254;11.314;2022-08-30T08:55:32;27.70;65.80
20319;DHT22;10317;47.254;11.314;2022-08-30T08:57:58;27.70;64.50
20319;DHT22;10317;47.254;11.314;2022-08-30T09:00:24;27.50;65.20
20319;DHT22;10317;47.254;11.314;2022-08-30T09:02:59;27.90;65.20
20319;DHT22;10317;47.254;11.314;2022-08-30T09:05:30;27.70;64.30
20319;DHT22;10317;47.254;11.314;2022-08-30T09:08:05;27.60;65.10
20319;DHT22;10317;47.254;11.314;2022-08-30T09:10:32;27.60;73.40
20319;DHT22;10317;47.254;11.314;2022-08-30T09:12:59;27.60;70.70
20319;DHT22;10317;47.254;11.314;2022-08-30T09:15:30;27.90;68.60
20319;DHT22;10317;47.254;11.314;2022-08-30T09:18:01;28.10;68.80
20319;DHT22;10317;47.254;11.314;2022-08-30T09:20:35;28.30;69.70
20319;DHT22;10317;47.254;11.314;2022-08-30T09:26:06;27.80;65.50
20319;DHT22;10317;47.254;11.314;2022-08-30T09:28:49;27.40;63.30
20319;DHT22;10317;47.254;11.314;2022-08-30T09:31:28;27.20;63.80
20319;DHT22;10317;47.254;11.314;2022-08-30T09:34:06;27.10;64.10
20319;DHT22;10317;47.254;11.314;2022-08-30T09:36:42;27.10;64.90
20319;DHT22;10317;47.254;11.314;2022-08-30T09:39:30;27.20;63.80
20319;DHT22;10317;47.254;11.314;2022-08-30T09:42:13;27.40;64.20
20319;DHT22;10317;47.254;11.314;2022-08-30T09:44:40;27.40;64.80
20319;DHT22;10317;47.254;11.314;2022-08-30T09:47:18;27.40;64.60
20319;DHT22;10317;47.254;11.314;2022-08-30T09:49:44;27.10;64.50
20319;DHT22;10317;47.254;11.314;2022-08-30T09:52:31;27.30;64.80
20319;DHT22;10317;47.254;11.314;2022-08-30T09:58:22;27.40;67.50
20319;DHT22;10317;47.254;11.314;2022-08-30T10:01:10;27.50;69.10
20319;DHT22;10317;47.254;11.314;2022-08-30T10:03:48;27.70;70.50
20319;DHT22;10317;47.254;11.314;2022-08-30T10:06:35;27.70;71.10
20319;DHT22;10317;47.254;11.314;2022-08-30T10:09:27;27.70;71.00
20319;DHT22;10317;47.254;11.314;2022-08-30T10:14:54;27.80;68.40
20319;DHT22;10317;47.254;11.314;2022-08-30T10:23:36;27.90;66.30
20319;DHT22;10317;47.254;11.314;2022-08-30T10:26:30;27.90;68.80
20319;DHT22;10317;47.254;11.314;2022-08-30T10:29:08;27.60;67.40
20319;DHT22;10317;47.254;11.314;2022-08-30T10:31:51;27.70;72.30
20319;DHT22;10317;47.254;11.314;2022-08-30T10:39:53;28.50;66.60
20319;DHT22;10317;47.254;11.314;2022-08-30T10:42:24;28.20;63.10
20319;DHT22;10317;47.254;11.314;2022-08-30T10:44:55;28.20;62.00
20319;DHT22;10317;47.254;11.314;2022-08-30T10:47:38;28.30;62.90
20319;DHT22;10317;47.254;11.314;2022-08-30T10:50:34;28.20;64.60
20319;DHT22;10317;47.254;11.314;2022-08-30T10:55:55;28.10;65.40
20319;DHT22;10317;47.254;11.314;2022-08-30T10:58:22;28.00;64.70
20319;DHT22;10317;47.254;11.314;2022-08-30T11:06:54;28.00;70.00
20319;DHT22;10317;47.254;11.314;2022-08-30T11:12:27;28.10;64.70
20319;DHT22;10317;47.254;11.314;2022-08-30T11:14:55;28.00;66.70
20319;DHT22;10317;47.254;11.314;2022-08-30T11:17:39;28.00;67.30
20319;DHT22;10317;47.254;11.314;2022-08-30T11:20:42;28.10;62.70
20319;DHT22;10317;47.254;11.314;2022-08-30T11:33:52;28.30;60.00
20319;DHT22;10317;47.254;11.314;2022-08-30T11:41:41;28.50;61.30
20319;DHT22;10317;47.254;11.314;2022-08-30T11:46:38;28.50;60.30
20319;DHT22;10317;47.254;11.314;2022-08-30T11:57:30;28.80;63.50
20319;DHT22;10317;47.254;11.314;2022-08-30T12:06:07;28.90;60.00
20319;DHT22;10317;47.254;11.314;2022-08-30T12:18:41;29.30;57.30
20319;DHT22;10317;47.254;11.314;2022-08-30T12:24:02;29.40;57.90
20319;DHT22;10317;47.254;11.314;2022-08-30T12:26:41;29.40;58.00
20319;DHT22;10317;47.254;11.314;2022-08-30T12:34:27;29.40;58.30
20319;DHT22;10317;47.254;11.314;2022-08-30T12:37:03;29.40;57.20
20319;DHT22;10317;47.254;11.314;2022-08-30T12:39:32;29.20;56.00
20319;DHT22;10317;47.254;11.314;2022-08-30T12:44:43;29.20;55.90
20319;DHT22;10317;47.254;11.314;2022-08-30T12:47:11;29.10;56.00
20319;DHT22;10317;47.254;11.314;2022-08-30T12:49:39;29.00;55.90
20319;DHT22;10317;47.254;11.314;2022-08-30T12:54:52;28.90;59.10
20319;DHT22;10317;47.254;11.314;2022-08-30T12:57:42;28.80;57.60
20319;DHT22;10317;47.254;11.314;2022-08-30T13:00:10;28.60;55.60
20319;DHT22;10317;47.254;11.314;2022-08-30T13:02:53;28.40;56.50
20319;DHT22;10317;47.254;11.314;2022-08-30T13:08:47;28.00;56.60
20319;DHT22;10317;47.254;11.314;2022-08-30T13:13:49;28.10;59.60
20319;DHT22;10317;47.254;11.314;2022-08-30T13:19:25;28.10;56.40
20319;DHT22;10317;47.254;11.314;2022-08-30T13:21:51;28.20;57.70
20319;DHT22;10317;47.254;11.314;2022-08-30T13:24:17;28.50;55.10
20319;DHT22;10317;47.254;11.314;2022-08-30T13:26:43;28.80;54.40
20319;DHT22;10317;47.254;11.314;2022-08-30T13:29:15;29.00;54.40
20319;DHT22;10317;47.254;11.314;2022-08-30T13:31:42;29.20;53.40
20319;DHT22;10317;47.254;11.314;2022-08-30T13:34:08;29.40;54.60
20319;DHT22;10317;47.254;11.314;2022-08-30T13:36:44;29.50;52.50
20319;DHT22;10317;47.254;11.314;2022-08-30T13:39:10;29.80;51.60
20319;DHT22;10317;47.254;11.314;2022-08-30T13:41:37;29.90;50.50
20319;DHT22;10317;47.254;11.314;2022-08-30T13:44:03;30.00;52.10
20319;DHT22;10317;47.254;11.314;2022-08-30T13:46:30;30.00;51.30
20319;DHT22;10317;47.254;11.314;2022-08-30T13:49:16;30.10;53.80
20319;DHT22;10317;47.254;11.314;2022-08-30T13:51:42;30.10;53.00
20319;DHT22;10317;47.254;11.314;2022-08-30T13:54:08;30.10;52.50
20319;DHT22;10317;47.254;11.314;2022-08-30T13:56:33;30.20;51.90
20319;DHT22;10317;47.254;11.314;2022-08-30T13:59:00;30.20;51.00
20319;DHT22;10317;47.254;11.314;2022-08-30T14:01:26;30.10;51.90
20319;DHT22;10317;47.254;11.314;2022-08-30T14:03:52;30.20;51.40
20319;DHT22;10317;47.254;11.314;2022-08-30T14:06:18;30.10;52.70
20319;DHT22;10317;47.254;11.314;2022-08-30T14:08:44;30.00;52.70
20319;DHT22;10317;47.254;11.314;2022-08-30T14:11:11;29.90;52.30
20319;DHT22;10317;47.254;11.314;2022-08-30T14:13:37;29.80;54.10
20319;DHT22;10317;47.254;11.314;2022-08-30T14:16:06;29.80;55.80
20319;DHT22;10317;47.254;11.314;2022-08-30T14:18:32;29.70;54.20
20319;DHT22;10317;47.254;11.314;2022-08-30T14:20:58;29.70;52.80
20319;DHT22;10317;47.254;11.314;2022-08-30T14:23:26;29.60;53.60
20319;DHT22;10317;47.254;11.314;2022-08-30T14:25:52;29.60;54.60
20319;DHT22;10317;47.254;11.314;2022-08-30T14:28:19;29.30;55.60
20319;DHT22;10317;47.254;11.314;2022-08-30T14:30:45;29.30;54.60
20319;DHT22;10317;47.254;11.314;2022-08-30T14:33:10;29.20;56.60
20319;DHT22;10317;47.254;11.314;2022-08-30T14:35:36;29.20;56.10
20319;DHT22;10317;47.254;11.314;2022-08-30T14:38:02;29.20;54.80
20319;DHT22;10317;47.254;11.314;2022-08-30T14:40:27;29.20;55.30
20319;DHT22;10317;47.254;11.314;2022-08-30T14:42:53;29.10;55.60
20319;DHT22;10317;47.254;11.314;2022-08-30T14:45:19;29.10;56.00
20319;DHT22;10317;47.254;11.314;2022-08-30T14:47:45;29.10;56.70
20319;DHT22;10317;47.254;11.314;2022-08-30T14:50:11;29.00;57.90
20319;DHT22;10317;47.254;11.314;2022-08-30T14:52:37;29.00;56.10
20319;DHT22;10317;47.254;11.314;2022-08-30T14:55:06;28.90;57.10
20319;DHT22;10317;47.254;11.314;2022-08-30T14:57:37;28.80;58.10
20319;DHT22;10317;47.254;11.314;2022-08-30T15:00:05;28.80;58.00
20319;DHT22;10317;47.254;11.314;2022-08-30T15:02:33;28.90;57.80
20319;DHT22;10317;47.254;11.314;2022-08-30T15:04:58;28.80;57.60
20319;DHT22;10317;47.254;11.314;2022-08-30T15:07:24;28.70;57.40
20319;DHT22;10317;47.254;11.314;2022-08-30T15:09:50;28.60;57.50
20319;DHT22;10317;47.254;11.314;2022-08-30T15:12:16;28.70;58.00
20319;DHT22;10317;47.254;11.314;2022-08-30T15:14:41;28.60;58.10
20319;DHT22;10317;47.254;11.314;2022-08-30T15:17:07;28.60;57.70
20319;DHT22;10317;47.254;11.314;2022-08-30T15:19:33;28.60;57.60
20319;DHT22;10317;47.254;11.314;2022-08-30T15:22:02;28.60;57.30
20319;DHT22;10317;47.254;11.314;2022-08-30T15:24:29;28.50;58.40
20319;DHT22;10317;47.254;11.314;2022-08-30T15:26:56;28.40;57.90
20319;DHT22;10317;47.254;11.314;2022-08-30T15:29:21;28.40;57.90
20319;DHT22;10317;47.254;11.314;2022-08-30T15:31:49;28.50;57.90
20319;DHT22;10317;47.254;11.314;2022-08-30T15:34:17;28.40;57.90
20319;DHT22;10317;47.254;11.314;2022-08-30T15:36:44;28.20;58.70
20319;DHT22;10317;47.254;11.314;2022-08-30T15:39:10;28.00;59.10
20319;DHT22;10317;47.254;11.314;2022-08-30T15:41:37;27.80;60.00
20319;DHT22;10317;47.254;11.314;2022-08-30T15:44:03;27.70;60.50
20319;DHT22;10317;47.254;11.314;2022-08-30T15:46:38;27.50;60.70
20319;DHT22;10317;47.254;11.314;2022-08-30T15:49:18;27.30;61.50
20319;DHT22;10317;47.254;11.314;2022-08-30T15:51:46;27.10;61.20
20319;DHT22;10317;47.254;11.314;2022-08-30T15:54:15;27.00;62.20
20319;DHT22;10317;47.254;11.314;2022-08-30T15:56:41;26.90;62.10
20319;DHT22;10317;47.254;11.314;2022-08-30T15:59:08;26.70;61.90
20319;DHT22;10317;47.254;11.314;2022-08-30T16:01:34;26.60;63.20
20319;DHT22;10317;47.254;11.314;2022-08-30T16:04:03;26.50;63.20
20319;DHT22;10317;47.254;11.314;2022-08-30T16:06:33;26.40;64.40
20319;DHT22;10317;47.254;11.314;2022-08-30T16:09:00;26.30;64.00
20319;DHT22;10317;47.254;11.314;2022-08-30T16:11:25;26.10;64.30
20319;DHT22;10317;47.254;11.314;2022-08-30T16:13:53;26.10;64.80
20319;DHT22;10317;47.254;11.314;2022-08-30T16:16:19;25.90;65.00
20319;DHT22;10317;47.254;11.314;2022-08-30T16:18:46;25.80;66.40
20319;DHT22;10317;47.254;11.314;2022-08-30T16:21:19;25.70;66.80
20319;DHT22;10317;47.254;11.314;2022-08-30T16:23:45;25.60;66.10
20319;DHT22;10317;47.254;11.314;2022-08-30T16:26:12;25.50;66.70
20319;DHT22;10317;47.254;11.314;2022-08-30T16:28:39;25.40;67.10
20319;DHT22;10317;47.254;11.314;2022-08-30T16:34:28;25.30;67.40
20319;DHT22;10317;47.254;11.314;2022-08-30T16:36:54;25.20;65.60
20319;DHT22;10317;47.254;11.314;2022-08-30T16:39:19;25.10;66.70
20319;DHT22;10317;47.254;11.314;2022-08-30T16:41:45;25.00;67.00
20319;DHT22;10317;47.254;11.314;2022-08-30T16:44:12;24.90;70.50
20319;DHT22;10317;47.254;11.314;2022-08-30T16:46:38;24.80;69.20
20319;DHT22;10317;47.254;11.314;2022-08-30T16:49:04;24.80;70.10
20319;DHT22;10317;47.254;11.314;2022-08-30T16:51:32;24.70;70.40
20319;DHT22;10317;47.254;11.314;2022-08-30T16:54:02;24.60;69.90
20319;DHT22;10317;47.254;11.314;2022-08-30T16:56:30;24.60;72.90
20319;DHT22;10317;47.254;11.314;2022-08-30T16:58:56;24.50;74.20
20319;DHT22;10317;47.254;11.314;2022-08-30T17:01:23;24.30;75.90
20319;DHT22;10317;47.254;11.314;2022-08-30T17:03:49;24.30;76.20
20319;DHT22;10317;47.254;11.314;2022-08-30T17:06:16;24.20;78.00
20319;DHT22;10317;47.254;11.314;2022-08-30T17:08:41;24.00;77.30
20319;DHT22;10317;47.254;11.314;2022-08-30T17:11:11;24.00;78.60